sensor_id;sensor_type;location;lat;lon;timestamp;temperature;humidity
7792;DHT22;3940;49.892;10.886;2022-08-06T00:00:47;20.90;99.90
7792;DHT22;3940;49.892;10.886;2022-08-06T00:03:31;21.00;99.90
7792;DHT22;3940;49.892;10.886;2022-08-06T00:06:16;20.90;99.90
7792;DHT22;3940;49.892;10.886;2022-08-06T00:09:00;21.00;99.90
7792;DHT22;3940;49.892;10.886;2022-08-06T00:11:45;20.90;99.90
7792;DHT22;3940;49.892;10.886;2022-08-06T00:14:30;20.90;99.90
7792;DHT22;3940;49.892;10.886;2022-08-06T00:17:15;20.90;99.90
7792;DHT22;3940;49.892;10.886;2022-08-06T00:20:03;20.90;99.90
7792;DHT22;3940;49.892;10.886;2022-08-06T00:22:47;20.80;99.90
7792;DHT22;3940;49.892;10.886;2022-08-06T00:25:31;20.80;99.90
7792;DHT22;3940;49.892;10.886;2022-08-06T00:28:16;20.80;99.90
7792;DHT22;3940;49.892;10.886;2022-08-06T00:31:02;20.80;99.90
7792;DHT22;3940;49.892;10.886;2022-08-06T00:33:47;20.80;99.90
7792;DHT22;3940;49.892;10.886;2022-08-06T00:36:32;20.70;99.90
7792;DHT22;3940;49.892;10.886;2022-08-06T00:39:17;20.70;99.90
7792;DHT22;3940;49.892;10.886;2022-08-06T00:42:01;20.60;99.90
7792;DHT22;3940;49.892;10.886;2022-08-06T00:44:46;20.60;99.90
7792;DHT22;3940;49.892;10.886;2022-08-06T00:47:30;20.70;99.90
7792;DHT22;3940;49.892;10.886;2022-08-06T00:50:14;20.60;99.90
7792;DHT22;3940;49.892;10.886;2022-08-06T00:52:59;20.60;99.90
7792;DHT22;3940;49.892;10.886;2022-08-06T00:55:44;20.60;99.90
7792;DHT22;3940;49.892;10.886;2022-08-06T00:58:29;20.50;99.90
7792;DHT22;3940;49.892;10.886;2022-08-06T01:01:13;20.50;99.90
7792;DHT22;3940;49.892;10.886;2022-08-06T01:03:58;20.40;99.90
7792;DHT22;3940;49.892;10.886;2022-08-06T01:06:43;20.40;99.90
7792;DHT22;3940;49.892;10.886;2022-08-06T01:09:28;20.30;99.90
7792;DHT22;3940;49.892;10.886;2022-08-06T01:12:12;20.30;99.90
7792;DHT22;3940;49.892;10.886;2022-08-06T01:14:56;20.40;99.90
7792;DHT22;3940;49.892;10.886;2022-08-06T01:21:10;20.40;99.90
7792;DHT22;3940;49.892;10.886;2022-08-06T01:27:26;20.40;99.90
7792;DHT22;3940;49.892;10.886;2022-08-06T01:30:18;20.30;99.90
7792;DHT22;3940;49.892;10.886;2022-08-06T01:33:11;20.40;99.90
7792;DHT22;3940;49.892;10.886;2022-08-06T01:36:01;20.40;99.90
7792;DHT22;3940;49.892;10.886;2022-08-06T01:38:50;20.30;99.90
7792;DHT22;3940;49.892;10.886;2022-08-06T01:41:41;20.30;99.90
7792;DHT22;3940;49.892;10.886;2022-08-06T01:44:34;20.30;99.90
7792;DHT22;3940;49.892;10.886;2022-08-06T01:47:22;20.30;99.90
7792;DHT22;3940;49.892;10.886;2022-08-06T01:50:08;20.30;99.90
7792;DHT22;3940;49.892;10.886;2022-08-06T01:52:54;20.20;99.90
7792;DHT22;3940;49.892;10.886;2022-08-06T01:55:42;20.10;99.90
7792;DHT22;3940;49.892;10.886;2022-08-06T01:58:32;20.00;99.90
7792;DHT22;3940;49.892;10.886;2022-08-06T02:01:18;20.00;99.90
7792;DHT22;3940;49.892;10.886;2022-08-06T02:04:04;20.10;99.90
7792;DHT22;3940;49.892;10.886;2022-08-06T02:06:51;20.00;99.90
7792;DHT22;3940;49.892;10.886;2022-08-06T02:09:38;20.00;99.90
7792;DHT22;3940;49.892;10.886;2022-08-06T02:12:25;20.00;99.90
7792;DHT22;3940;49.892;10.886;2022-08-06T02:15:14;20.00;99.90
7792;DHT22;3940;49.892;10.886;2022-08-06T02:18:02;20.00;99.90
7792;DHT22;3940;49.892;10.886;2022-08-06T02:20:51;20.00;99.90
7792;DHT22;3940;49.892;10.886;2022-08-06T02:23:37;20.10;99.90
7792;DHT22;3940;49.892;10.886;2022-08-06T02:26:24;20.00;99.90
7792;DHT22;3940;49.892;10.886;2022-08-06T02:29:14;20.00;99.90
7792;DHT22;3940;49.892;10.886;2022-08-06T02:31:59;20.00;99.90
7792;DHT22;3940;49.892;10.886;2022-08-06T02:34:44;19.90;99.90
7792;DHT22;3940;49.892;10.886;2022-08-06T02:37:36;19.90;99.90
7792;DHT22;3940;49.892;10.886;2022-08-06T02:40:26;19.90;99.90
7792;DHT22;3940;49.892;10.886;2022-08-06T02:43:15;19.90;99.90
7792;DHT22;3940;49.892;10.886;2022-08-06T02:46:11;19.90;99.90
7792;DHT22;3940;49.892;10.886;2022-08-06T02:49:01;19.90;99.90
7792;DHT22;3940;49.892;10.886;2022-08-06T02:51:53;19.90;99.90
7792;DHT22;3940;49.892;10.886;2022-08-06T02:54:44;19.90;99.90
7792;DHT22;3940;49.892;10.886;2022-08-06T02:57:33;19.80;99.90
7792;DHT22;3940;49.892;10.886;2022-08-06T03:00:18;19.80;99.90
7792;DHT22;3940;49.892;10.886;2022-08-06T03:03:04;19.70;99.90
7792;DHT22;3940;49.892;10.886;2022-08-06T03:05:52;19.70;99.90
7792;DHT22;3940;49.892;10.886;2022-08-06T03:08:38;19.60;99.90
7792;DHT22;3940;49.892;10.886;2022-08-06T03:11:23;19.60;99.90
7792;DHT22;3940;49.892;10.886;2022-08-06T03:14:09;19.50;99.90
7792;DHT22;3940;49.892;10.886;2022-08-06T03:16:54;19.60;99.90
7792;DHT22;3940;49.892;10.886;2022-08-06T03:19:43;19.50;99.90
7792;DHT22;3940;49.892;10.886;2022-08-06T03:22:29;19.50;99.90
7792;DHT22;3940;49.892;10.886;2022-08-06T03:25:16;19.50;99.90
7792;DHT22;3940;49.892;10.886;2022-08-06T03:28:01;19.40;99.90
7792;DHT22;3940;49.892;10.886;2022-08-06T03:30:45;19.40;99.90
7792;DHT22;3940;49.892;10.886;2022-08-06T03:33:32;19.40;99.90
7792;DHT22;3940;49.892;10.886;2022-08-06T03:36:20;19.40;99.90
7792;DHT22;3940;49.892;10.886;2022-08-06T03:39:06;19.30;99.90
7792;DHT22;3940;49.892;10.886;2022-08-06T03:41:53;19.30;99.90
7792;DHT22;3940;49.892;10.886;2022-08-06T03:44:38;19.30;99.90
7792;DHT22;3940;49.892;10.886;2022-08-06T03:47:25;19.30;99.90
7792;DHT22;3940;49.892;10.886;2022-08-06T03:50:22;19.20;99.90
7792;DHT22;3940;49.892;10.886;2022-08-06T03:53:12;19.20;99.90
7792;DHT22;3940;49.892;10.886;2022-08-06T03:56:01;19.20;99.90
7792;DHT22;3940;49.892;10.886;2022-08-06T03:58:47;19.10;99.90
7792;DHT22;3940;49.892;10.886;2022-08-06T04:01:36;19.20;99.90
7792;DHT22;3940;49.892;10.886;2022-08-06T04:04:23;19.10;99.90
7792;DHT22;3940;49.892;10.886;2022-08-06T04:07:08;19.00;99.90
7792;DHT22;3940;49.892;10.886;2022-08-06T04:09:53;19.00;99.90
7792;DHT22;3940;49.892;10.886;2022-08-06T04:12:39;19.10;99.90
7792;DHT22;3940;49.892;10.886;2022-08-06T04:15:24;19.00;99.90
7792;DHT22;3940;49.892;10.886;2022-08-06T04:18:11;19.10;99.90
7792;DHT22;3940;49.892;10.886;2022-08-06T04:21:01;19.00;99.90
7792;DHT22;3940;49.892;10.886;2022-08-06T04:23:46;19.10;99.90
7792;DHT22;3940;49.892;10.886;2022-08-06T04:26:32;19.10;99.90
7792;DHT22;3940;49.892;10.886;2022-08-06T04:29:20;19.00;99.90
7792;DHT22;3940;49.892;10.886;2022-08-06T04:32:06;19.00;99.90
7792;DHT22;3940;49.892;10.886;2022-08-06T04:34:52;18.90;99.90
7792;DHT22;3940;49.892;10.886;2022-08-06T04:37:39;19.00;99.90
7792;DHT22;3940;49.892;10.886;2022-08-06T04:40:25;18.90;99.90
7792;DHT22;3940;49.892;10.886;2022-08-06T04:43:11;18.90;99.90
7792;DHT22;3940;49.892;10.886;2022-08-06T04:45:56;18.90;99.90
7792;DHT22;3940;49.892;10.886;2022-08-06T04:48:41;18.90;99.90
7792;DHT22;3940;49.892;10.886;2022-08-06T04:51:25;18.90;99.90
7792;DHT22;3940;49.892;10.886;2022-08-06T04:54:09;18.90;99.90
7792;DHT22;3940;49.892;10.886;2022-08-06T04:56:54;19.00;99.90
7792;DHT22;3940;49.892;10.886;2022-08-06T04:59:39;19.00;99.90
7792;DHT22;3940;49.892;10.886;2022-08-06T05:02:23;18.90;99.90
7792;DHT22;3940;49.892;10.886;2022-08-06T05:05:08;19.00;99.90
7792;DHT22;3940;49.892;10.886;2022-08-06T05:07:54;19.00;99.90
7792;DHT22;3940;49.892;10.886;2022-08-06T05:10:47;19.00;99.90
7792;DHT22;3940;49.892;10.886;2022-08-06T05:13:36;19.10;99.90
7792;DHT22;3940;49.892;10.886;2022-08-06T05:16:23;19.00;99.90
7792;DHT22;3940;49.892;10.886;2022-08-06T05:19:14;19.10;99.90
7792;DHT22;3940;49.892;10.886;2022-08-06T05:21:59;19.10;99.90
7792;DHT22;3940;49.892;10.886;2022-08-06T05:24:45;19.10;99.90
7792;DHT22;3940;49.892;10.886;2022-08-06T05:27:31;19.00;99.90
7792;DHT22;3940;49.892;10.886;2022-08-06T05:30:15;19.00;99.90
7792;DHT22;3940;49.892;10.886;2022-08-06T05:33:00;18.80;99.90
7792;DHT22;3940;49.892;10.886;2022-08-06T05:35:44;18.90;99.90
7792;DHT22;3940;49.892;10.886;2022-08-06T05:38:31;18.90;99.90
7792;DHT22;3940;49.892;10.886;2022-08-06T05:41:15;19.00;99.90
7792;DHT22;3940;49.892;10.886;2022-08-06T05:44:00;19.20;99.90
7792;DHT22;3940;49.892;10.886;2022-08-06T05:46:57;19.30;99.90
7792;DHT22;3940;49.892;10.886;2022-08-06T05:49:46;19.30;99.90
7792;DHT22;3940;49.892;10.886;2022-08-06T05:53:01;19.30;99.90
7792;DHT22;3940;49.892;10.886;2022-08-06T05:56:02;19.10;99.90
7792;DHT22;3940;49.892;10.886;2022-08-06T05:58:55;18.60;99.90
7792;DHT22;3940;49.892;10.886;2022-08-06T06:01:41;18.50;99.90
7792;DHT22;3940;49.892;10.886;2022-08-06T06:04:26;18.40;99.90
7792;DHT22;3940;49.892;10.886;2022-08-06T06:07:10;18.70;99.90
7792;DHT22;3940;49.892;10.886;2022-08-06T06:09:55;18.00;99.90
7792;DHT22;3940;49.892;10.886;2022-08-06T06:12:41;18.60;99.90
7792;DHT22;3940;49.892;10.886;2022-08-06T06:15:26;18.90;99.90
7792;DHT22;3940;49.892;10.886;2022-08-06T06:18:26;19.10;99.90
7792;DHT22;3940;49.892;10.886;2022-08-06T06:21:24;18.90;99.90
7792;DHT22;3940;49.892;10.886;2022-08-06T06:24:17;19.20;99.90
7792;DHT22;3940;49.892;10.886;2022-08-06T06:27:08;19.40;99.90
7792;DHT22;3940;49.892;10.886;2022-08-06T06:30:04;19.40;99.90
7792;DHT22;3940;49.892;10.886;2022-08-06T06:32:57;18.40;99.90
7792;DHT22;3940;49.892;10.886;2022-08-06T06:35:50;18.90;99.90
7792;DHT22;3940;49.892;10.886;2022-08-06T06:38:43;19.10;99.90
7792;DHT22;3940;49.892;10.886;2022-08-06T06:41:39;19.30;99.90
7792;DHT22;3940;49.892;10.886;2022-08-06T06:50:54;19.50;99.90
7792;DHT22;3940;49.892;10.886;2022-08-06T06:53:45;19.60;99.90
7792;DHT22;3940;49.892;10.886;2022-08-06T06:56:35;19.60;99.90
7792;DHT22;3940;49.892;10.886;2022-08-06T06:59:24;19.40;99.90
7792;DHT22;3940;49.892;10.886;2022-08-06T07:02:18;19.50;99.90
7792;DHT22;3940;49.892;10.886;2022-08-06T07:05:04;19.70;99.90
7792;DHT22;3940;49.892;10.886;2022-08-06T07:07:49;19.80;99.90
7792;DHT22;3940;49.892;10.886;2022-08-06T07:10:35;19.80;99.90
7792;DHT22;3940;49.892;10.886;2022-08-06T07:13:21;19.90;99.90
7792;DHT22;3940;49.892;10.886;2022-08-06T07:16:06;19.90;99.90
7792;DHT22;3940;49.892;10.886;2022-08-06T07:18:53;19.80;99.90
7792;DHT22;3940;49.892;10.886;2022-08-06T07:21:40;19.10;99.90
7792;DHT22;3940;49.892;10.886;2022-08-06T07:24:26;19.20;99.90
7792;DHT22;3940;49.892;10.886;2022-08-06T07:27:12;19.20;99.90
7792;DHT22;3940;49.892;10.886;2022-08-06T07:29:58;19.30;99.90
7792;DHT22;3940;49.892;10.886;2022-08-06T07:32:44;19.20;99.90
7792;DHT22;3940;49.892;10.886;2022-08-06T07:35:29;19.60;99.90
7792;DHT22;3940;49.892;10.886;2022-08-06T07:38:15;19.70;99.90
7792;DHT22;3940;49.892;10.886;2022-08-06T07:41:03;20.00;99.90
7792;DHT22;3940;49.892;10.886;2022-08-06T07:43:53;20.10;99.90
7792;DHT22;3940;49.892;10.886;2022-08-06T07:46:41;20.10;99.90
7792;DHT22;3940;49.892;10.886;2022-08-06T07:49:36;20.20;99.90
7792;DHT22;3940;49.892;10.886;2022-08-06T07:52:24;20.30;99.90
7792;DHT22;3940;49.892;10.886;2022-08-06T07:55:10;20.40;99.90
7792;DHT22;3940;49.892;10.886;2022-08-06T07:57:56;20.20;99.90
7792;DHT22;3940;49.892;10.886;2022-08-06T08:00:43;19.50;99.90
7792;DHT22;3940;49.892;10.886;2022-08-06T08:03:29;19.80;99.90
7792;DHT22;3940;49.892;10.886;2022-08-06T08:06:34;20.30;99.90
7792;DHT22;3940;49.892;10.886;2022-08-06T08:09:21;20.60;99.90
7792;DHT22;3940;49.892;10.886;2022-08-06T08:12:07;20.50;99.90
7792;DHT22;3940;49.892;10.886;2022-08-06T08:14:52;20.40;99.90
7792;DHT22;3940;49.892;10.886;2022-08-06T08:17:37;20.00;99.90
7792;DHT22;3940;49.892;10.886;2022-08-06T08:20:22;20.00;99.90
7792;DHT22;3940;49.892;10.886;2022-08-06T08:23:10;19.90;99.90
7792;DHT22;3940;49.892;10.886;2022-08-06T08:25:58;19.90;99.90
7792;DHT22;3940;49.892;10.886;2022-08-06T08:28:43;20.50;99.90
7792;DHT22;3940;49.892;10.886;2022-08-06T08:31:27;20.80;99.90
7792;DHT22;3940;49.892;10.886;2022-08-06T08:34:11;21.00;99.90
7792;DHT22;3940;49.892;10.886;2022-08-06T08:36:56;21.10;99.90
7792;DHT22;3940;49.892;10.886;2022-08-06T08:39:41;20.10;99.90
7792;DHT22;3940;49.892;10.886;2022-08-06T08:42:40;20.70;99.90
7792;DHT22;3940;49.892;10.886;2022-08-06T08:45:24;20.60;99.90
7792;DHT22;3940;49.892;10.886;2022-08-06T08:48:11;20.90;99.90
7792;DHT22;3940;49.892;10.886;2022-08-06T08:50:58;21.10;99.90
7792;DHT22;3940;49.892;10.886;2022-08-06T08:53:48;21.30;99.90
7792;DHT22;3940;49.892;10.886;2022-08-06T08:56:32;21.40;99.90
7792;DHT22;3940;49.892;10.886;2022-08-06T08:59:18;21.30;99.90
7792;DHT22;3940;49.892;10.886;2022-08-06T09:02:04;21.40;99.90
7792;DHT22;3940;49.892;10.886;2022-08-06T09:04:48;21.40;99.90
7792;DHT22;3940;49.892;10.886;2022-08-06T09:07:33;21.50;99.90
7792;DHT22;3940;49.892;10.886;2022-08-06T09:10:19;21.60;99.90
7792;DHT22;3940;49.892;10.886;2022-08-06T09:13:04;21.50;99.90
7792;DHT22;3940;49.892;10.886;2022-08-06T09:15:49;21.20;99.90
7792;DHT22;3940;49.892;10.886;2022-08-06T09:18:34;20.80;99.90
7792;DHT22;3940;49.892;10.886;2022-08-06T09:21:18;21.30;99.90
7792;DHT22;3940;49.892;10.886;2022-08-06T09:24:03;21.60;99.90
7792;DHT22;3940;49.892;10.886;2022-08-06T09:27:05;22.00;99.90
7792;DHT22;3940;49.892;10.886;2022-08-06T09:29:54;22.20;99.90
7792;DHT22;3940;49.892;10.886;2022-08-06T09:32:44;22.30;99.90
7792;DHT22;3940;49.892;10.886;2022-08-06T09:35:29;22.30;99.90
7792;DHT22;3940;49.892;10.886;2022-08-06T09:38:15;22.10;99.90
7792;DHT22;3940;49.892;10.886;2022-08-06T09:41:09;21.70;99.90
7792;DHT22;3940;49.892;10.886;2022-08-06T09:43:56;22.20;99.90
7792;DHT22;3940;49.892;10.886;2022-08-06T09:46:44;22.50;99.90
7792;DHT22;3940;49.892;10.886;2022-08-06T09:49:43;22.60;98.90
7792;DHT22;3940;49.892;10.886;2022-08-06T09:52:27;22.70;99.90
7792;DHT22;3940;49.892;10.886;2022-08-06T09:55:28;22.50;99.20
7792;DHT22;3940;49.892;10.886;2022-08-06T09:58:25;22.50;97.50
7792;DHT22;3940;49.892;10.886;2022-08-06T10:01:22;22.00;97.60
7792;DHT22;3940;49.892;10.886;2022-08-06T10:04:48;22.60;97.30
7792;DHT22;3940;49.892;10.886;2022-08-06T10:07:34;22.80;93.70
7792;DHT22;3940;49.892;10.886;2022-08-06T10:10:32;22.40;93.60
7792;DHT22;3940;49.892;10.886;2022-08-06T10:13:27;22.80;93.30
7792;DHT22;3940;49.892;10.886;2022-08-06T10:16:17;22.40;97.20
7792;DHT22;3940;49.892;10.886;2022-08-06T10:19:02;22.60;96.90
7792;DHT22;3940;49.892;10.886;2022-08-06T10:21:51;23.00;93.50
7792;DHT22;3940;49.892;10.886;2022-08-06T10:24:43;23.10;91.90
7792;DHT22;3940;49.892;10.886;2022-08-06T10:27:33;22.30;89.20
7792;DHT22;3940;49.892;10.886;2022-08-06T10:30:20;22.40;91.70
7792;DHT22;3940;49.892;10.886;2022-08-06T10:33:06;22.00;89.40
7792;DHT22;3940;49.892;10.886;2022-08-06T10:35:59;22.00;90.40
7792;DHT22;3940;49.892;10.886;2022-08-06T10:38:45;23.20;92.40
7792;DHT22;3940;49.892;10.886;2022-08-06T10:41:32;23.40;90.70
7792;DHT22;3940;49.892;10.886;2022-08-06T10:44:22;23.90;90.30
7792;DHT22;3940;49.892;10.886;2022-08-06T10:47:30;24.10;89.40
7792;DHT22;3940;49.892;10.886;2022-08-06T10:50:17;22.70;80.70
7792;DHT22;3940;49.892;10.886;2022-08-06T10:53:23;22.60;80.20
7792;DHT22;3940;49.892;10.886;2022-08-06T10:56:11;22.70;82.00
7792;DHT22;3940;49.892;10.886;2022-08-06T10:59:16;23.30;83.20
7792;DHT22;3940;49.892;10.886;2022-08-06T11:05:36;23.60;80.30
7792;DHT22;3940;49.892;10.886;2022-08-06T11:12:00;24.70;78.30
7792;DHT22;3940;49.892;10.886;2022-08-06T11:14:49;25.30;77.20
7792;DHT22;3940;49.892;10.886;2022-08-06T11:17:43;25.40;76.20
7792;DHT22;3940;49.892;10.886;2022-08-06T11:20:42;24.80;75.40
7792;DHT22;3940;49.892;10.886;2022-08-06T11:23:29;24.70;80.60
7792;DHT22;3940;49.892;10.886;2022-08-06T11:26:32;25.60;78.40
7792;DHT22;3940;49.892;10.886;2022-08-06T11:29:17;26.10;77.40
7792;DHT22;3940;49.892;10.886;2022-08-06T11:32:02;25.10;69.90
7792;DHT22;3940;49.892;10.886;2022-08-06T11:34:46;25.30;68.60
7792;DHT22;3940;49.892;10.886;2022-08-06T11:37:42;25.40;69.40
7792;DHT22;3940;49.892;10.886;2022-08-06T11:40:28;25.90;72.60
7792;DHT22;3940;49.892;10.886;2022-08-06T11:46:35;26.60;64.30
7792;DHT22;3940;49.892;10.886;2022-08-06T11:49:23;27.50;60.80
7792;DHT22;3940;49.892;10.886;2022-08-06T11:52:08;27.90;59.60
7792;DHT22;3940;49.892;10.886;2022-08-06T11:55:05;28.10;58.90
7792;DHT22;3940;49.892;10.886;2022-08-06T11:58:17;27.50;59.90
7792;DHT22;3940;49.892;10.886;2022-08-06T12:01:04;28.80;62.60
7792;DHT22;3940;49.892;10.886;2022-08-06T12:03:49;29.70;60.00
7792;DHT22;3940;49.892;10.886;2022-08-06T12:06:34;28.50;58.30
7792;DHT22;3940;49.892;10.886;2022-08-06T12:09:18;29.70;55.30
7792;DHT22;3940;49.892;10.886;2022-08-06T12:12:33;29.90;55.80
7792;DHT22;3940;49.892;10.886;2022-08-06T12:15:36;28.90;51.70
7792;DHT22;3940;49.892;10.886;2022-08-06T12:18:21;26.80;55.50
7792;DHT22;3940;49.892;10.886;2022-08-06T12:21:09;26.90;56.30
7792;DHT22;3940;49.892;10.886;2022-08-06T12:23:54;27.60;55.40
7792;DHT22;3940;49.892;10.886;2022-08-06T12:26:39;28.20;56.90
7792;DHT22;3940;49.892;10.886;2022-08-06T12:29:29;28.40;56.20
7792;DHT22;3940;49.892;10.886;2022-08-06T12:32:23;30.10;53.90
7792;DHT22;3940;49.892;10.886;2022-08-06T12:35:10;30.80;52.00
7792;DHT22;3940;49.892;10.886;2022-08-06T12:37:56;30.30;50.90
7792;DHT22;3940;49.892;10.886;2022-08-06T12:40:52;30.10;51.60
7792;DHT22;3940;49.892;10.886;2022-08-06T12:43:41;31.10;50.80
7792;DHT22;3940;49.892;10.886;2022-08-06T12:46:25;31.00;49.60
7792;DHT22;3940;49.892;10.886;2022-08-06T12:49:10;29.20;50.20
7792;DHT22;3940;49.892;10.886;2022-08-06T12:52:12;30.00;49.50
7792;DHT22;3940;49.892;10.886;2022-08-06T12:54:56;29.10;49.80
7792;DHT22;3940;49.892;10.886;2022-08-06T12:57:41;29.20;52.00
7792;DHT22;3940;49.892;10.886;2022-08-06T13:00:26;30.50;48.50
7792;DHT22;3940;49.892;10.886;2022-08-06T13:03:12;31.50;46.70
7792;DHT22;3940;49.892;10.886;2022-08-06T13:05:59;32.10;48.70
7792;DHT22;3940;49.892;10.886;2022-08-06T13:08:46;32.10;47.90
7792;DHT22;3940;49.892;10.886;2022-08-06T13:11:32;32.20;47.90
7792;DHT22;3940;49.892;10.886;2022-08-06T13:14:17;32.00;47.30
7792;DHT22;3940;49.892;10.886;2022-08-06T13:17:11;31.30;46.50
7792;DHT22;3940;49.892;10.886;2022-08-06T13:19:57;32.70;46.70
7792;DHT22;3940;49.892;10.886;2022-08-06T13:22:50;30.50;48.00
7792;DHT22;3940;49.892;10.886;2022-08-06T13:25:43;30.40;49.10
7792;DHT22;3940;49.892;10.886;2022-08-06T13:28:28;28.90;49.60
7792;DHT22;3940;49.892;10.886;2022-08-06T13:31:20;31.20;50.60
7792;DHT22;3940;49.892;10.886;2022-08-06T13:34:06;31.90;47.60
7792;DHT22;3940;49.892;10.886;2022-08-06T13:36:54;31.60;46.20
7792;DHT22;3940;49.892;10.886;2022-08-06T13:39:49;30.60;46.30
7792;DHT22;3940;49.892;10.886;2022-08-06T13:42:49;32.00;46.20
7792;DHT22;3940;49.892;10.886;2022-08-06T13:45:33;31.60;46.30
7792;DHT22;3940;49.892;10.886;2022-08-06T13:48:18;29.30;47.00
7792;DHT22;3940;49.892;10.886;2022-08-06T13:51:02;31.10;48.90
7792;DHT22;3940;49.892;10.886;2022-08-06T13:53:47;31.70;47.90
7792;DHT22;3940;49.892;10.886;2022-08-06T13:56:32;32.40;47.90
7792;DHT22;3940;49.892;10.886;2022-08-06T13:59:16;31.30;46.90
7792;DHT22;3940;49.892;10.886;2022-08-06T14:02:01;31.00;48.60
7792;DHT22;3940;49.892;10.886;2022-08-06T14:04:46;32.10;46.70
7792;DHT22;3940;49.892;10.886;2022-08-06T14:07:30;30.20;44.70
7792;DHT22;3940;49.892;10.886;2022-08-06T14:10:15;29.60;48.60
7792;DHT22;3940;49.892;10.886;2022-08-06T14:12:59;29.20;47.10
7792;DHT22;3940;49.892;10.886;2022-08-06T14:16:04;29.20;47.50
7792;DHT22;3940;49.892;10.886;2022-08-06T14:18:49;29.20;48.20
7792;DHT22;3940;49.892;10.886;2022-08-06T14:21:33;29.30;49.10
7792;DHT22;3940;49.892;10.886;2022-08-06T14:24:18;29.50;46.50
7792;DHT22;3940;49.892;10.886;2022-08-06T14:27:02;28.00;45.90
7792;DHT22;3940;49.892;10.886;2022-08-06T14:29:47;26.80;48.50
7792;DHT22;3940;49.892;10.886;2022-08-06T14:32:32;27.10;50.60
7792;DHT22;3940;49.892;10.886;2022-08-06T14:35:17;26.20;50.20
7792;DHT22;3940;49.892;10.886;2022-08-06T14:38:02;27.20;51.60
7792;DHT22;3940;49.892;10.886;2022-08-06T14:40:47;28.70;52.00
7792;DHT22;3940;49.892;10.886;2022-08-06T14:43:47;28.60;49.80
7792;DHT22;3940;49.892;10.886;2022-08-06T14:46:42;30.00;49.30
7792;DHT22;3940;49.892;10.886;2022-08-06T14:49:27;30.40;47.60
7792;DHT22;3940;49.892;10.886;2022-08-06T14:52:12;29.80;47.40
7792;DHT22;3940;49.892;10.886;2022-08-06T14:54:56;30.00;48.00
7792;DHT22;3940;49.892;10.886;2022-08-06T14:57:41;30.50;46.20
7792;DHT22;3940;49.892;10.886;2022-08-06T15:00:26;30.20;47.50
7792;DHT22;3940;49.892;10.886;2022-08-06T15:03:10;30.70;46.50
7792;DHT22;3940;49.892;10.886;2022-08-06T15:05:54;31.00;46.80
7792;DHT22;3940;49.892;10.886;2022-08-06T15:08:38;31.30;46.80
7792;DHT22;3940;49.892;10.886;2022-08-06T15:11:23;31.10;45.20
7792;DHT22;3940;49.892;10.886;2022-08-06T15:14:08;30.60;47.50
7792;DHT22;3940;49.892;10.886;2022-08-06T15:16:53;30.00;44.80
7792;DHT22;3940;49.892;10.886;2022-08-06T15:19:37;30.30;48.50
7792;DHT22;3940;49.892;10.886;2022-08-06T15:22:22;29.20;46.60
7792;DHT22;3940;49.892;10.886;2022-08-06T15:25:06;30.10;48.20
7792;DHT22;3940;49.892;10.886;2022-08-06T15:27:52;30.70;47.30
7792;DHT22;3940;49.892;10.886;2022-08-06T15:30:36;30.80;46.80
7792;DHT22;3940;49.892;10.886;2022-08-06T15:33:25;30.60;45.80
7792;DHT22;3940;49.892;10.886;2022-08-06T15:36:10;30.80;47.40
7792;DHT22;3940;49.892;10.886;2022-08-06T15:38:54;30.30;46.80
7792;DHT22;3940;49.892;10.886;2022-08-06T15:41:41;30.90;46.30
7792;DHT22;3940;49.892;10.886;2022-08-06T15:44:26;30.90;47.40
7792;DHT22;3940;49.892;10.886;2022-08-06T15:47:11;30.50;48.30
7792;DHT22;3940;49.892;10.886;2022-08-06T15:49:55;30.70;45.40
7792;DHT22;3940;49.892;10.886;2022-08-06T15:52:40;30.20;47.40
7792;DHT22;3940;49.892;10.886;2022-08-06T15:55:25;29.70;46.00
7792;DHT22;3940;49.892;10.886;2022-08-06T15:58:09;29.10;47.90
7792;DHT22;3940;49.892;10.886;2022-08-06T16:00:54;28.90;46.50
7792;DHT22;3940;49.892;10.886;2022-08-06T16:03:38;28.20;48.20
7792;DHT22;3940;49.892;10.886;2022-08-06T16:06:23;28.80;48.00
7792;DHT22;3940;49.892;10.886;2022-08-06T16:09:07;27.40;49.80
7792;DHT22;3940;49.892;10.886;2022-08-06T16:11:52;27.50;47.70
7792;DHT22;3940;49.892;10.886;2022-08-06T16:14:36;28.40;48.50
7792;DHT22;3940;49.892;10.886;2022-08-06T16:17:21;29.30;47.70
7792;DHT22;3940;49.892;10.886;2022-08-06T16:20:05;29.50;47.60
7792;DHT22;3940;49.892;10.886;2022-08-06T16:22:51;29.20;48.40
7792;DHT22;3940;49.892;10.886;2022-08-06T16:25:36;28.40;46.90
7792;DHT22;3940;49.892;10.886;2022-08-06T16:28:23;28.40;50.20
7792;DHT22;3940;49.892;10.886;2022-08-06T16:31:11;28.10;49.20
7792;DHT22;3940;49.892;10.886;2022-08-06T16:33:55;29.40;49.20
7792;DHT22;3940;49.892;10.886;2022-08-06T16:36:40;29.90;47.20
7792;DHT22;3940;49.892;10.886;2022-08-06T16:39:28;29.40;48.30
7792;DHT22;3940;49.892;10.886;2022-08-06T16:42:13;29.10;48.40
7792;DHT22;3940;49.892;10.886;2022-08-06T16:44:57;29.90;47.60
7792;DHT22;3940;49.892;10.886;2022-08-06T16:47:42;29.00;48.90
7792;DHT22;3940;49.892;10.886;2022-08-06T16:50:27;29.60;47.40
7792;DHT22;3940;49.892;10.886;2022-08-06T16:53:12;29.10;50.10
7792;DHT22;3940;49.892;10.886;2022-08-06T16:55:56;29.70;48.60
7792;DHT22;3940;49.892;10.886;2022-08-06T16:58:44;29.00;48.60
7792;DHT22;3940;49.892;10.886;2022-08-06T17:01:29;29.70;48.60
7792;DHT22;3940;49.892;10.886;2022-08-06T17:04:35;29.90;47.10
7792;DHT22;3940;49.892;10.886;2022-08-06T17:07:20;28.40;47.00
7792;DHT22;3940;49.892;10.886;2022-08-06T17:10:14;27.90;50.10
7792;DHT22;3940;49.892;10.886;2022-08-06T17:12:59;29.00;48.40
7792;DHT22;3940;49.892;10.886;2022-08-06T17:15:44;28.60;48.30
7792;DHT22;3940;49.892;10.886;2022-08-06T17:18:28;29.00;49.10
7792;DHT22;3940;49.892;10.886;2022-08-06T17:21:12;29.30;49.70
7792;DHT22;3940;49.892;10.886;2022-08-06T17:23:57;29.50;49.10
7792;DHT22;3940;49.892;10.886;2022-08-06T17:26:43;29.00;50.50
7792;DHT22;3940;49.892;10.886;2022-08-06T17:29:28;28.10;51.30
7792;DHT22;3940;49.892;10.886;2022-08-06T17:32:13;28.20;49.90
7792;DHT22;3940;49.892;10.886;2022-08-06T17:34:57;28.60;49.70
7792;DHT22;3940;49.892;10.886;2022-08-06T17:37:44;28.70;49.40
7792;DHT22;3940;49.892;10.886;2022-08-06T17:40:29;28.90;48.10
7792;DHT22;3940;49.892;10.886;2022-08-06T17:43:13;28.30;50.40
7792;DHT22;3940;49.892;10.886;2022-08-06T17:45:57;28.50;50.20
7792;DHT22;3940;49.892;10.886;2022-08-06T17:48:42;28.40;49.90
7792;DHT22;3940;49.892;10.886;2022-08-06T17:51:27;28.20;51.70
7792;DHT22;3940;49.892;10.886;2022-08-06T17:54:11;27.80;52.40
7792;DHT22;3940;49.892;10.886;2022-08-06T17:56:56;27.80;54.00
7792;DHT22;3940;49.892;10.886;2022-08-06T17:59:42;27.70;51.40
7792;DHT22;3940;49.892;10.886;2022-08-06T18:02:27;27.10;53.50
7792;DHT22;3940;49.892;10.886;2022-08-06T18:05:17;27.30;52.50
7792;DHT22;3940;49.892;10.886;2022-08-06T18:08:02;27.10;51.20
7792;DHT22;3940;49.892;10.886;2022-08-06T18:10:47;27.00;52.50
7792;DHT22;3940;49.892;10.886;2022-08-06T18:16:45;26.60;52.50
7792;DHT22;3940;49.892;10.886;2022-08-06T18:19:32;26.60;52.50
7792;DHT22;3940;49.892;10.886;2022-08-06T18:22:17;25.60;52.20